sensor_id;sensor_type;location;lat;lon;timestamp;temperature;humidity
41447;DHT22;27185;52.040;4.490;2023-07-16T00:01:59;19.60;95.30
41447;DHT22;27185;52.040;4.490;2023-07-16T00:04:44;19.60;95.10
41447;DHT22;27185;52.040;4.490;2023-07-16T00:07:30;19.60;95.00
41447;DHT22;27185;52.040;4.490;2023-07-16T00:10:16;19.60;95.00
41447;DHT22;27185;52.040;4.490;2023-07-16T00:13:02;19.60;94.90
41447;DHT22;27185;52.040;4.490;2023-07-16T00:15:48;19.60;94.90
41447;DHT22;27185;52.040;4.490;2023-07-16T00:18:34;19.70;94.90
41447;DHT22;27185;52.040;4.490;2023-07-16T00:21:19;19.70;94.80
41447;DHT22;27185;52.040;4.490;2023-07-16T00:24:05;19.70;94.90
41447;DHT22;27185;52.040;4.490;2023-07-16T00:26:50;19.60;94.80
41447;DHT22;27185;52.040;4.490;2023-07-16T00:29:36;19.70;94.80
41447;DHT22;27185;52.040;4.490;2023-07-16T00:32:21;19.70;94.80
41447;DHT22;27185;52.040;4.490;2023-07-16T00:35:07;19.70;94.80
41447;DHT22;27185;52.040;4.490;2023-07-16T00:37:53;19.70;94.80
41447;DHT22;27185;52.040;4.490;2023-07-16T00:40:39;19.60;94.80
41447;DHT22;27185;52.040;4.490;2023-07-16T00:43:24;19.70;94.90
41447;DHT22;27185;52.040;4.490;2023-07-16T00:46:10;19.70;95.00
41447;DHT22;27185;52.040;4.490;2023-07-16T00:48:56;19.60;95.00
41447;DHT22;27185;52.040;4.490;2023-07-16T00:51:42;19.60;95.00
41447;DHT22;27185;52.040;4.490;2023-07-16T00:54:30;19.60;95.10
41447;DHT22;27185;52.040;4.490;2023-07-16T00:57:16;19.60;95.20
41447;DHT22;27185;52.040;4.490;2023-07-16T01:00:02;19.70;95.20
41447;DHT22;27185;52.040;4.490;2023-07-16T01:02:48;19.70;95.20
41447;DHT22;27185;52.040;4.490;2023-07-16T01:08:49;19.70;95.30
41447;DHT22;27185;52.040;4.490;2023-07-16T01:11:38;19.70;95.40
41447;DHT22;27185;52.040;4.490;2023-07-16T01:14:24;19.70;95.40
41447;DHT22;27185;52.040;4.490;2023-07-16T01:17:10;19.70;95.40
41447;DHT22;27185;52.040;4.490;2023-07-16T01:19:55;19.70;95.50
41447;DHT22;27185;52.040;4.490;2023-07-16T01:23:15;19.70;95.60
41447;DHT22;27185;52.040;4.490;2023-07-16T01:29:16;19.60;95.80
41447;DHT22;27185;52.040;4.490;2023-07-16T01:32:05;19.60;95.80
41447;DHT22;27185;52.040;4.490;2023-07-16T01:34:52;19.60;95.80
41447;DHT22;27185;52.040;4.490;2023-07-16T01:37:38;19.60;95.80
41447;DHT22;27185;52.040;4.490;2023-07-16T01:40:24;19.60;95.80
41447;DHT22;27185;52.040;4.490;2023-07-16T01:43:09;19.60;95.80
41447;DHT22;27185;52.040;4.490;2023-07-16T01:45:55;19.50;95.80
41447;DHT22;27185;52.040;4.490;2023-07-16T01:48:41;19.50;95.80
41447;DHT22;27185;52.040;4.490;2023-07-16T01:51:26;19.50;95.80
41447;DHT22;27185;52.040;4.490;2023-07-16T01:54:12;19.50;95.80
41447;DHT22;27185;52.040;4.490;2023-07-16T01:56:58;19.50;95.80
41447;DHT22;27185;52.040;4.490;2023-07-16T01:59:43;19.50;95.80
41447;DHT22;27185;52.040;4.490;2023-07-16T02:02:30;19.50;95.90
41447;DHT22;27185;52.040;4.490;2023-07-16T02:05:16;19.50;95.90
41447;DHT22;27185;52.040;4.490;2023-07-16T02:08:02;19.40;95.90
41447;DHT22;27185;52.040;4.490;2023-07-16T02:10:48;19.50;96.00
41447;DHT22;27185;52.040;4.490;2023-07-16T02:13:33;19.50;96.00
41447;DHT22;27185;52.040;4.490;2023-07-16T02:16:19;19.50;96.10
41447;DHT22;27185;52.040;4.490;2023-07-16T02:19:04;19.50;96.00
41447;DHT22;27185;52.040;4.490;2023-07-16T02:21:50;19.50;96.10
41447;DHT22;27185;52.040;4.490;2023-07-16T02:24:36;19.60;96.10
41447;DHT22;27185;52.040;4.490;2023-07-16T02:27:21;19.60;96.20
41447;DHT22;27185;52.040;4.490;2023-07-16T02:30:07;19.60;96.30
41447;DHT22;27185;52.040;4.490;2023-07-16T02:32:53;19.50;96.40
41447;DHT22;27185;52.040;4.490;2023-07-16T02:35:39;19.50;96.50
41447;DHT22;27185;52.040;4.490;2023-07-16T02:38:24;19.50;96.60
41447;DHT22;27185;52.040;4.490;2023-07-16T02:41:10;19.50;96.70
41447;DHT22;27185;52.040;4.490;2023-07-16T02:44:00;19.50;96.60
41447;DHT22;27185;52.040;4.490;2023-07-16T02:46:46;19.50;96.70
41447;DHT22;27185;52.040;4.490;2023-07-16T02:49:32;19.50;96.70
41447;DHT22;27185;52.040;4.490;2023-07-16T02:52:17;19.50;97.00
41447;DHT22;27185;52.040;4.490;2023-07-16T02:55:03;19.50;96.60
41447;DHT22;27185;52.040;4.490;2023-07-16T02:57:49;19.50;96.70
41447;DHT22;27185;52.040;4.490;2023-07-16T03:00:35;19.50;96.80
41447;DHT22;27185;52.040;4.490;2023-07-16T03:03:20;19.50;96.80
41447;DHT22;27185;52.040;4.490;2023-07-16T03:06:06;19.50;96.80
41447;DHT22;27185;52.040;4.490;2023-07-16T03:08:52;19.50;96.80
41447;DHT22;27185;52.040;4.490;2023-07-16T03:11:38;19.50;96.80
41447;DHT22;27185;52.040;4.490;2023-07-16T03:14:23;19.50;96.90
41447;DHT22;27185;52.040;4.490;2023-07-16T03:17:09;19.40;97.00
41447;DHT22;27185;52.040;4.490;2023-07-16T03:19:54;19.40;97.00
41447;DHT22;27185;52.040;4.490;2023-07-16T03:22:40;19.30;97.20
41447;DHT22;27185;52.040;4.490;2023-07-16T03:25:25;19.30;97.40
41447;DHT22;27185;52.040;4.490;2023-07-16T03:28:11;19.30;97.40
41447;DHT22;27185;52.040;4.490;2023-07-16T03:30:57;19.30;97.50
41447;DHT22;27185;52.040;4.490;2023-07-16T03:33:42;19.20;98.00
41447;DHT22;27185;52.040;4.490;2023-07-16T03:36:28;19.20;97.70
41447;DHT22;27185;52.040;4.490;2023-07-16T03:39:13;19.20;97.80
41447;DHT22;27185;52.040;4.490;2023-07-16T03:41:59;19.30;97.80
41447;DHT22;27185;52.040;4.490;2023-07-16T03:44:44;19.30;97.80
41447;DHT22;27185;52.040;4.490;2023-07-16T03:47:30;19.30;97.80
41447;DHT22;27185;52.040;4.490;2023-07-16T03:50:16;19.30;97.90
41447;DHT22;27185;52.040;4.490;2023-07-16T03:53:02;19.30;98.10
41447;DHT22;27185;52.040;4.490;2023-07-16T03:55:48;19.30;98.20
41447;DHT22;27185;52.040;4.490;2023-07-16T03:58:34;19.20;98.40
41447;DHT22;27185;52.040;4.490;2023-07-16T04:01:19;19.30;98.40
41447;DHT22;27185;52.040;4.490;2023-07-16T04:04:05;19.30;98.40
41447;DHT22;27185;52.040;4.490;2023-07-16T04:06:50;19.20;98.70
41447;DHT22;27185;52.040;4.490;2023-07-16T04:09:39;19.30;98.30
41447;DHT22;27185;52.040;4.490;2023-07-16T04:12:25;19.20;98.30
41447;DHT22;27185;52.040;4.490;2023-07-16T04:15:11;19.20;98.20
41447;DHT22;27185;52.040;4.490;2023-07-16T04:17:56;19.20;98.20
41447;DHT22;27185;52.040;4.490;2023-07-16T04:20:42;19.20;98.20
41447;DHT22;27185;52.040;4.490;2023-07-16T04:23:28;19.20;98.20
41447;DHT22;27185;52.040;4.490;2023-07-16T04:26:13;19.20;98.10
41447;DHT22;27185;52.040;4.490;2023-07-16T04:28:59;19.30;98.10
41447;DHT22;27185;52.040;4.490;2023-07-16T04:31:44;19.30;98.10
41447;DHT22;27185;52.040;4.490;2023-07-16T04:34:30;19.30;98.40
41447;DHT22;27185;52.040;4.490;2023-07-16T04:37:16;19.20;98.10
41447;DHT22;27185;52.040;4.490;2023-07-16T04:40:01;19.30;98.10
41447;DHT22;27185;52.040;4.490;2023-07-16T04:42:47;19.30;98.00
41447;DHT22;27185;52.040;4.490;2023-07-16T04:45:33;19.40;97.90
41447;DHT22;27185;52.040;4.490;2023-07-16T04:48:18;19.50;97.60
41447;DHT22;27185;52.040;4.490;2023-07-16T04:51:04;19.50;97.20
41447;DHT22;27185;52.040;4.490;2023-07-16T04:53:49;19.50;97.10
41447;DHT22;27185;52.040;4.490;2023-07-16T04:56:35;19.50;97.00
41447;DHT22;27185;52.040;4.490;2023-07-16T04:59:21;19.50;96.80
41447;DHT22;27185;52.040;4.490;2023-07-16T05:02:07;19.60;96.70
41447;DHT22;27185;52.040;4.490;2023-07-16T05:04:52;19.70;96.50
41447;DHT22;27185;52.040;4.490;2023-07-16T05:07:38;19.70;96.20
41447;DHT22;27185;52.040;4.490;2023-07-16T05:10:24;19.70;96.00
41447;DHT22;27185;52.040;4.490;2023-07-16T05:13:09;19.60;95.70
41447;DHT22;27185;52.040;4.490;2023-07-16T05:15:55;19.70;95.80
41447;DHT22;27185;52.040;4.490;2023-07-16T05:18:40;19.60;95.60
41447;DHT22;27185;52.040;4.490;2023-07-16T05:21:26;19.70;95.70
41447;DHT22;27185;52.040;4.490;2023-07-16T05:24:12;19.70;95.60
41447;DHT22;27185;52.040;4.490;2023-07-16T05:26:57;19.60;95.60
41447;DHT22;27185;52.040;4.490;2023-07-16T05:29:43;19.60;95.80
41447;DHT22;27185;52.040;4.490;2023-07-16T05:32:28;19.60;96.00
41447;DHT22;27185;52.040;4.490;2023-07-16T05:35:14;19.60;96.20
41447;DHT22;27185;52.040;4.490;2023-07-16T05:37:59;19.70;96.30
41447;DHT22;27185;52.040;4.490;2023-07-16T05:40:45;19.80;96.40
41447;DHT22;27185;52.040;4.490;2023-07-16T05:43:31;19.80;96.40
41447;DHT22;27185;52.040;4.490;2023-07-16T05:46:17;19.90;96.40
41447;DHT22;27185;52.040;4.490;2023-07-16T05:49:02;20.00;96.40
41447;DHT22;27185;52.040;4.490;2023-07-16T05:51:48;20.00;96.20
41447;DHT22;27185;52.040;4.490;2023-07-16T05:54:34;20.10;96.10
41447;DHT22;27185;52.040;4.490;2023-07-16T05:57:19;20.10;96.10
41447;DHT22;27185;52.040;4.490;2023-07-16T06:00:05;20.10;96.00
41447;DHT22;27185;52.040;4.490;2023-07-16T06:02:52;20.10;95.80
41447;DHT22;27185;52.040;4.490;2023-07-16T06:05:37;20.10;95.70
41447;DHT22;27185;52.040;4.490;2023-07-16T06:08:23;20.00;95.50
41447;DHT22;27185;52.040;4.490;2023-07-16T06:11:10;20.00;95.40
41447;DHT22;27185;52.040;4.490;2023-07-16T06:13:55;19.90;95.20
41447;DHT22;27185;52.040;4.490;2023-07-16T06:16:41;20.00;95.40
41447;DHT22;27185;52.040;4.490;2023-07-16T06:19:28;20.00;95.40
41447;DHT22;27185;52.040;4.490;2023-07-16T06:22:14;20.00;95.40
41447;DHT22;27185;52.040;4.490;2023-07-16T06:24:59;20.00;95.40
41447;DHT22;27185;52.040;4.490;2023-07-16T06:27:45;20.00;95.50
41447;DHT22;27185;52.040;4.490;2023-07-16T06:30:31;20.00;95.70
41447;DHT22;27185;52.040;4.490;2023-07-16T06:33:18;20.00;95.80
41447;DHT22;27185;52.040;4.490;2023-07-16T06:36:04;19.90;96.00
41447;DHT22;27185;52.040;4.490;2023-07-16T06:38:50;20.00;96.20
41447;DHT22;27185;52.040;4.490;2023-07-16T06:41:35;19.90;96.50
41447;DHT22;27185;52.040;4.490;2023-07-16T06:44:22;20.00;96.30
41447;DHT22;27185;52.040;4.490;2023-07-16T06:47:07;20.10;96.40
41447;DHT22;27185;52.040;4.490;2023-07-16T06:49:53;20.20;96.40
41447;DHT22;27185;52.040;4.490;2023-07-16T06:52:40;20.20;96.20
41447;DHT22;27185;52.040;4.490;2023-07-16T06:55:26;20.30;96.30
41447;DHT22;27185;52.040;4.490;2023-07-16T06:58:14;20.30;96.20
41447;DHT22;27185;52.040;4.490;2023-07-16T07:01:01;20.30;96.00
41447;DHT22;27185;52.040;4.490;2023-07-16T07:03:47;20.40;96.00
41447;DHT22;27185;52.040;4.490;2023-07-16T07:06:32;20.50;96.20
41447;DHT22;27185;52.040;4.490;2023-07-16T07:09:18;20.40;95.90
41447;DHT22;27185;52.040;4.490;2023-07-16T07:12:04;20.50;95.90
41447;DHT22;27185;52.040;4.490;2023-07-16T07:14:49;20.60;95.80
41447;DHT22;27185;52.040;4.490;2023-07-16T07:17:35;20.70;95.70
41447;DHT22;27185;52.040;4.490;2023-07-16T07:20:21;20.70;95.50
41447;DHT22;27185;52.040;4.490;2023-07-16T07:23:06;20.80;95.50
41447;DHT22;27185;52.040;4.490;2023-07-16T07:25:52;20.90;95.10
41447;DHT22;27185;52.040;4.490;2023-07-16T07:28:38;20.90;94.90
41447;DHT22;27185;52.040;4.490;2023-07-16T07:31:23;21.00;95.00
41447;DHT22;27185;52.040;4.490;2023-07-16T07:34:09;21.00;94.90
41447;DHT22;27185;52.040;4.490;2023-07-16T07:36:55;21.00;94.90
41447;DHT22;27185;52.040;4.490;2023-07-16T07:39:40;20.90;94.80
41447;DHT22;27185;52.040;4.490;2023-07-16T07:42:26;21.00;95.00
41447;DHT22;27185;52.040;4.490;2023-07-16T07:45:12;21.00;95.10
41447;DHT22;27185;52.040;4.490;2023-07-16T07:47:58;21.10;95.20
41447;DHT22;27185;52.040;4.490;2023-07-16T07:50:43;21.10;95.00
41447;DHT22;27185;52.040;4.490;2023-07-16T07:53:31;21.20;95.20
41447;DHT22;27185;52.040;4.490;2023-07-16T07:56:17;21.10;94.80
41447;DHT22;27185;52.040;4.490;2023-07-16T07:59:02;21.20;94.90
41447;DHT22;27185;52.040;4.490;2023-07-16T08:01:49;21.30;95.10
41447;DHT22;27185;52.040;4.490;2023-07-16T08:04:34;21.30;94.80
41447;DHT22;27185;52.040;4.490;2023-07-16T08:07:23;21.40;94.90
41447;DHT22;27185;52.040;4.490;2023-07-16T08:10:11;21.40;94.70
41447;DHT22;27185;52.040;4.490;2023-07-16T08:12:56;21.40;94.60
41447;DHT22;27185;52.040;4.490;2023-07-16T08:15:42;21.40;94.60
41447;DHT22;27185;52.040;4.490;2023-07-16T08:18:28;21.40;94.60
41447;DHT22;27185;52.040;4.490;2023-07-16T08:21:13;21.50;94.60
41447;DHT22;27185;52.040;4.490;2023-07-16T08:24:06;21.40;94.30
41447;DHT22;27185;52.040;4.490;2023-07-16T08:26:52;21.40;94.30
41447;DHT22;27185;52.040;4.490;2023-07-16T08:29:38;21.50;94.50
41447;DHT22;27185;52.040;4.490;2023-07-16T08:32:23;21.50;94.40
41447;DHT22;27185;52.040;4.490;2023-07-16T08:35:09;21.50;94.40
41447;DHT22;27185;52.040;4.490;2023-07-16T08:38:01;21.50;94.30
41447;DHT22;27185;52.040;4.490;2023-07-16T08:40:47;21.50;94.40
41447;DHT22;27185;52.040;4.490;2023-07-16T08:43:34;21.50;94.40
41447;DHT22;27185;52.040;4.490;2023-07-16T08:46:20;21.60;94.20
41447;DHT22;27185;52.040;4.490;2023-07-16T08:49:07;21.60;94.20
41447;DHT22;27185;52.040;4.490;2023-07-16T08:51:54;21.60;94.10
41447;DHT22;27185;52.040;4.490;2023-07-16T08:54:41;21.70;94.20
41447;DHT22;27185;52.040;4.490;2023-07-16T08:57:26;21.70;94.20
41447;DHT22;27185;52.040;4.490;2023-07-16T09:00:14;21.80;94.40
41447;DHT22;27185;52.040;4.490;2023-07-16T09:03:00;21.90;94.30
41447;DHT22;27185;52.040;4.490;2023-07-16T09:05:45;21.90;94.10
41447;DHT22;27185;52.040;4.490;2023-07-16T09:08:31;22.00;94.00
41447;DHT22;27185;52.040;4.490;2023-07-16T09:11:17;22.10;94.00
41447;DHT22;27185;52.040;4.490;2023-07-16T09:14:06;22.20;94.00
41447;DHT22;27185;52.040;4.490;2023-07-16T09:16:52;22.30;93.70
41447;DHT22;27185;52.040;4.490;2023-07-16T09:19:38;22.40;93.50
41447;DHT22;27185;52.040;4.490;2023-07-16T09:22:24;22.40;93.30
41447;DHT22;27185;52.040;4.490;2023-07-16T09:25:09;22.40;93.20
41447;DHT22;27185;52.040;4.490;2023-07-16T09:27:58;22.40;92.80
41447;DHT22;27185;52.040;4.490;2023-07-16T09:30:47;22.30;92.80
41447;DHT22;27185;52.040;4.490;2023-07-16T09:33:33;22.30;92.70
41447;DHT22;27185;52.040;4.490;2023-07-16T09:36:24;22.20;92.70
41447;DHT22;27185;52.040;4.490;2023-07-16T09:39:10;22.20;92.80
41447;DHT22;27185;52.040;4.490;2023-07-16T09:41:57;22.20;93.00
41447;DHT22;27185;52.040;4.490;2023-07-16T09:44:44;22.20;93.20
41447;DHT22;27185;52.040;4.490;2023-07-16T09:47:30;22.10;93.20
41447;DHT22;27185;52.040;4.490;2023-07-16T09:50:15;22.10;93.20
41447;DHT22;27185;52.040;4.490;2023-07-16T09:53:05;22.20;93.10
41447;DHT22;27185;52.040;4.490;2023-07-16T09:55:51;22.20;92.30
41447;DHT22;27185;52.040;4.490;2023-07-16T09:58:38;22.30;92.10
41447;DHT22;27185;52.040;4.490;2023-07-16T10:01:24;22.50;92.50
41447;DHT22;27185;52.040;4.490;2023-07-16T10:04:15;22.50;92.10
41447;DHT22;27185;52.040;4.490;2023-07-16T10:07:01;22.60;92.20
41447;DHT22;27185;52.040;4.490;2023-07-16T10:09:57;22.60;92.30
41447;DHT22;27185;52.040;4.490;2023-07-16T10:12:43;22.70;91.70
41447;DHT22;27185;52.040;4.490;2023-07-16T10:15:29;22.90;91.80
41447;DHT22;27185;52.040;4.490;2023-07-16T10:18:26;23.10;90.20
41447;DHT22;27185;52.040;4.490;2023-07-16T10:21:22;23.00;88.80
41447;DHT22;27185;52.040;4.490;2023-07-16T10:24:16;22.90;88.70
41447;DHT22;27185;52.040;4.490;2023-07-16T10:27:03;23.00;87.40
41447;DHT22;27185;52.040;4.490;2023-07-16T10:29:48;23.00;87.70
41447;DHT22;27185;52.040;4.490;2023-07-16T10:32:34;23.30;87.90
41447;DHT22;27185;52.040;4.490;2023-07-16T10:35:20;23.50;87.20
41447;DHT22;27185;52.040;4.490;2023-07-16T10:38:05;23.70;87.50
41447;DHT22;27185;52.040;4.490;2023-07-16T10:40:51;23.70;87.80
41447;DHT22;27185;52.040;4.490;2023-07-16T10:43:37;23.60;85.40
41447;DHT22;27185;52.040;4.490;2023-07-16T10:46:22;23.40;85.00
41447;DHT22;27185;52.040;4.490;2023-07-16T10:49:09;23.60;85.20
41447;DHT22;27185;52.040;4.490;2023-07-16T10:51:54;23.80;85.40
41447;DHT22;27185;52.040;4.490;2023-07-16T10:54:40;23.90;84.10
41447;DHT22;27185;52.040;4.490;2023-07-16T10:57:27;23.90;84.20
41447;DHT22;27185;52.040;4.490;2023-07-16T11:00:15;24.10;84.30
41447;DHT22;27185;52.040;4.490;2023-07-16T11:03:01;24.10;83.80
41447;DHT22;27185;52.040;4.490;2023-07-16T11:05:46;24.00;84.80
41447;DHT22;27185;52.040;4.490;2023-07-16T11:08:32;23.90;85.20
41447;DHT22;27185;52.040;4.490;2023-07-16T11:11:28;23.70;85.40
41447;DHT22;27185;52.040;4.490;2023-07-16T11:14:14;23.50;84.50
41447;DHT22;27185;52.040;4.490;2023-07-16T11:17:07;23.50;85.80
41447;DHT22;27185;52.040;4.490;2023-07-16T11:19:59;23.40;85.80
41447;DHT22;27185;52.040;4.490;2023-07-16T11:22:46;23.50;86.70
41447;DHT22;27185;52.040;4.490;2023-07-16T11:25:32;23.60;85.10
41447;DHT22;27185;52.040;4.490;2023-07-16T11:28:17;23.40;84.10
41447;DHT22;27185;52.040;4.490;2023-07-16T11:31:11;23.60;84.40
41447;DHT22;27185;52.040;4.490;2023-07-16T11:34:00;23.70;82.80
41447;DHT22;27185;52.040;4.490;2023-07-16T11:36:46;23.80;82.70
41447;DHT22;27185;52.040;4.490;2023-07-16T11:39:31;23.90;84.00
41447;DHT22;27185;52.040;4.490;2023-07-16T11:42:28;24.00;84.70
41447;DHT22;27185;52.040;4.490;2023-07-16T11:45:19;24.10;82.30
41447;DHT22;27185;52.040;4.490;2023-07-16T11:48:05;24.30;83.00
41447;DHT22;27185;52.040;4.490;2023-07-16T11:50:51;24.50;84.10
41447;DHT22;27185;52.040;4.490;2023-07-16T11:53:36;24.70;83.90
41447;DHT22;27185;52.040;4.490;2023-07-16T11:56:22;24.90;82.70
41447;DHT22;27185;52.040;4.490;2023-07-16T11:59:08;25.10;79.70
41447;DHT22;27185;52.040;4.490;2023-07-16T12:01:54;25.30;79.80
41447;DHT22;27185;52.040;4.490;2023-07-16T12:04:40;25.30;80.00
41447;DHT22;27185;52.040;4.490;2023-07-16T12:07:38;25.50;80.30
41447;DHT22;27185;52.040;4.490;2023-07-16T12:10:23;25.60;79.60
41447;DHT22;27185;52.040;4.490;2023-07-16T12:13:09;25.80;80.40
41447;DHT22;27185;52.040;4.490;2023-07-16T12:15:54;25.80;80.00
41447;DHT22;27185;52.040;4.490;2023-07-16T12:18:40;25.70;80.00
41447;DHT22;27185;52.040;4.490;2023-07-16T12:21:26;25.50;80.60
41447;DHT22;27185;52.040;4.490;2023-07-16T12:24:11;25.50;81.80
41447;DHT22;27185;52.040;4.490;2023-07-16T12:26:57;25.50;81.40
41447;DHT22;27185;52.040;4.490;2023-07-16T12:29:44;25.40;81.20
41447;DHT22;27185;52.040;4.490;2023-07-16T12:32:29;25.30;80.90
41447;DHT22;27185;52.040;4.490;2023-07-16T12:35:15;25.20;81.10
41447;DHT22;27185;52.040;4.490;2023-07-16T12:38:01;25.20;81.40
41447;DHT22;27185;52.040;4.490;2023-07-16T12:40:46;25.30;81.40
41447;DHT22;27185;52.040;4.490;2023-07-16T12:43:33;25.20;80.80
41447;DHT22;27185;52.040;4.490;2023-07-16T12:46:19;25.10;80.50
41447;DHT22;27185;52.040;4.490;2023-07-16T12:49:05;25.10;81.80
41447;DHT22;27185;52.040;4.490;2023-07-16T12:51:50;25.10;81.10
41447;DHT22;27185;52.040;4.490;2023-07-16T12:54:36;25.20;79.90
41447;DHT22;27185;52.040;4.490;2023-07-16T12:57:22;25.30;80.00
41447;DHT22;27185;52.040;4.490;2023-07-16T13:00:07;25.10;79.70
41447;DHT22;27185;52.040;4.490;2023-07-16T13:02:55;25.10;80.40
41447;DHT22;27185;52.040;4.490;2023-07-16T13:05:41;25.20;80.40
41447;DHT22;27185;52.040;4.490;2023-07-16T13:08:26;25.40;80.30
41447;DHT22;27185;52.040;4.490;2023-07-16T13:11:13;25.40;80.20
41447;DHT22;27185;52.040;4.490;2023-07-16T13:13:59;25.40;80.10
41447;DHT22;27185;52.040;4.490;2023-07-16T13:16:45;25.40;80.30
41447;DHT22;27185;52.040;4.490;2023-07-16T13:19:30;25.40;79.80
41447;DHT22;27185;52.040;4.490;2023-07-16T13:22:16;25.40;80.80
41447;DHT22;27185;52.040;4.490;2023-07-16T13:25:01;25.50;81.30
41447;DHT22;27185;52.040;4.490;2023-07-16T13:27:47;25.60;81.90
41447;DHT22;27185;52.040;4.490;2023-07-16T13:30:34;25.60;81.30
41447;DHT22;27185;52.040;4.490;2023-07-16T13:33:19;25.60;81.40
41447;DHT22;27185;52.040;4.490;2023-07-16T13:36:05;25.70;81.40
41447;DHT22;27185;52.040;4.490;2023-07-16T13:38:51;25.70;81.70
41447;DHT22;27185;52.040;4.490;2023-07-16T13:41:36;25.80;81.90
41447;DHT22;27185;52.040;4.490;2023-07-16T13:44:22;25.90;82.00
41447;DHT22;27185;52.040;4.490;2023-07-16T13:47:08;25.90;82.50
41447;DHT22;27185;52.040;4.490;2023-07-16T13:49:53;25.80;82.10
41447;DHT22;27185;52.040;4.490;2023-07-16T13:52:39;25.90;82.50
41447;DHT22;27185;52.040;4.490;2023-07-16T13:55:24;25.90;83.10
41447;DHT22;27185;52.040;4.490;2023-07-16T13:58:10;25.90;83.20
41447;DHT22;27185;52.040;4.490;2023-07-16T14:00:56;26.00;83.10
41447;DHT22;27185;52.040;4.490;2023-07-16T14:03:42;26.00;83.10
41447;DHT22;27185;52.040;4.490;2023-07-16T14:06:27;26.00;82.70
41447;DHT22;27185;52.040;4.490;2023-07-16T14:09:13;26.00;82.30
41447;DHT22;27185;52.040;4.490;2023-07-16T14:11:58;26.10;82.80
41447;DHT22;27185;52.040;4.490;2023-07-16T14:14:46;26.20;82.40
41447;DHT22;27185;52.040;4.490;2023-07-16T14:17:32;26.40;82.30
41447;DHT22;27185;52.040;4.490;2023-07-16T14:20:18;26.50;81.60
41447;DHT22;27185;52.040;4.490;2023-07-16T14:23:03;26.50;81.30
41447;DHT22;27185;52.040;4.490;2023-07-16T14:25:49;26.60;81.90
41447;DHT22;27185;52.040;4.490;2023-07-16T14:28:34;26.50;81.50
41447;DHT22;27185;52.040;4.490;2023-07-16T14:31:20;26.40;81.30
41447;DHT22;27185;52.040;4.490;2023-07-16T14:34:05;26.40;81.50
41447;DHT22;27185;52.040;4.490;2023-07-16T14:36:52;26.40;81.60
41447;DHT22;27185;52.040;4.490;2023-07-16T14:39:37;26.40;82.10
41447;DHT22;27185;52.040;4.490;2023-07-16T14:42:23;26.40;81.50
41447;DHT22;27185;52.040;4.490;2023-07-16T14:45:09;26.30;81.50
41447;DHT22;27185;52.040;4.490;2023-07-16T14:47:55;26.20;81.50
41447;DHT22;27185;52.040;4.490;2023-07-16T14:50:40;26.40;82.40
41447;DHT22;27185;52.040;4.490;2023-07-16T14:53:26;26.30;81.50
41447;DHT22;27185;52.040;4.490;2023-07-16T14:56:12;26.40;81.90
41447;DHT22;27185;52.040;4.490;2023-07-16T14:58:57;26.50;82.10
41447;DHT22;27185;52.040;4.490;2023-07-16T15:01:43;26.60;82.00
41447;DHT22;27185;52.040;4.490;2023-07-16T15:04:28;26.70;81.70
41447;DHT22;27185;52.040;4.490;2023-07-16T15:07:14;26.80;81.30
41447;DHT22;27185;52.040;4.490;2023-07-16T15:10:00;26.80;80.00
41447;DHT22;27185;52.040;4.490;2023-07-16T15:12:46;26.90;80.50
41447;DHT22;27185;52.040;4.490;2023-07-16T15:15:32;27.00;80.80
41447;DHT22;27185;52.040;4.490;2023-07-16T15:18:19;27.00;80.20
41447;DHT22;27185;52.040;4.490;2023-07-16T15:21:05;27.10;79.70
41447;DHT22;27185;52.040;4.490;2023-07-16T15:23:50;27.10;80.30
41447;DHT22;27185;52.040;4.490;2023-07-16T15:26:36;27.00;80.20
41447;DHT22;27185;52.040;4.490;2023-07-16T15:29:22;27.10;80.60
41447;DHT22;27185;52.040;4.490;2023-07-16T15:32:07;27.20;80.50
41447;DHT22;27185;52.040;4.490;2023-07-16T15:34:53;27.10;80.20
41447;DHT22;27185;52.040;4.490;2023-07-16T15:37:38;27.20;80.10
41447;DHT22;27185;52.040;4.490;2023-07-16T15:40:24;27.20;79.30
41447;DHT22;27185;52.040;4.490;2023-07-16T15:43:10;27.30;78.70
41447;DHT22;27185;52.040;4.490;2023-07-16T15:45:55;27.40;78.60
41447;DHT22;27185;52.040;4.490;2023-07-16T15:48:41;27.30;77.10
41447;DHT22;27185;52.040;4.490;2023-07-16T15:51:28;27.30;77.30
41447;DHT22;27185;52.040;4.490;2023-07-16T15:54:14;27.20;75.60
41447;DHT22;27185;52.040;4.490;2023-07-16T15:57:00;27.20;76.30
41447;DHT22;27185;52.040;4.490;2023-07-16T15:59:45;27.10;75.10
41447;DHT22;27185;52.040;4.490;2023-07-16T16:02:31;27.00;73.90
41447;DHT22;27185;52.040;4.490;2023-07-16T16:05:16;26.90;73.20
41447;DHT22;27185;52.040;4.490;2023-07-16T16:10:56;27.00;72.10
41447;DHT22;27185;52.040;4.490;2023-07-16T16:13:41;27.00;73.60
41447;DHT22;27185;52.040;4.490;2023-07-16T16:16:28;27.00;72.70
41447;DHT22;27185;52.040;4.490;2023-07-16T16:19:19;27.00;72.60
41447;DHT22;27185;52.040;4.490;2023-07-16T16:22:06;26.90;70.70
41447;DHT22;27185;52.040;4.490;2023-07-16T16:24:51;26.80;71.40
41447;DHT22;27185;52.040;4.490;2023-07-16T16:27:37;26.70;70.40
41447;DHT22;27185;52.040;4.490;2023-07-16T16:30:23;26.50;70.70
41447;DHT22;27185;52.040;4.490;2023-07-16T16:33:09;26.50;71.70
41447;DHT22;27185;52.040;4.490;2023-07-16T16:35:56;26.30;71.60
41447;DHT22;27185;52.040;4.490;2023-07-16T16:38:41;26.30;72.20
41447;DHT22;27185;52.040;4.490;2023-07-16T16:41:27;26.20;72.40
41447;DHT22;27185;52.040;4.490;2023-07-16T16:44:13;26.10;73.10
41447;DHT22;27185;52.040;4.490;2023-07-16T16:46:59;25.90;74.10
41447;DHT22;27185;52.040;4.490;2023-07-16T16:49:45;25.70;75.40
41447;DHT22;27185;52.040;4.490;2023-07-16T16:52:31;25.50;76.20
41447;DHT22;27185;52.040;4.490;2023-07-16T16:55:17;25.30;77.60
41447;DHT22;27185;52.040;4.490;2023-07-16T16:58:03;25.10;78.30
41447;DHT22;27185;52.040;4.490;2023-07-16T17:00:49;25.00;79.10
41447;DHT22;27185;52.040;4.490;2023-07-16T17:03:37;24.90;79.50
41447;DHT22;27185;52.040;4.490;2023-07-16T17:06:22;24.90;80.10
41447;DHT22;27185;52.040;4.490;2023-07-16T17:09:08;24.90;80.50
41447;DHT22;27185;52.040;4.490;2023-07-16T17:11:54;24.90;80.80
41447;DHT22;27185;52.040;4.490;2023-07-16T17:14:40;25.00;81.00
41447;DHT22;27185;52.040;4.490;2023-07-16T17:17:28;25.20;81.10
41447;DHT22;27185;52.040;4.490;2023-07-16T17:20:14;25.30;80.40
41447;DHT22;27185;52.040;4.490;2023-07-16T17:22:59;25.40;80.00
41447;DHT22;27185;52.040;4.490;2023-07-16T17:25:45;25.40;79.60
41447;DHT22;27185;52.040;4.490;2023-07-16T17:28:30;25.20;79.60
41447;DHT22;27185;52.040;4.490;2023-07-16T17:31:16;25.10;79.80
41447;DHT22;27185;52.040;4.490;2023-07-16T17:34:02;25.00;80.10
41447;DHT22;27185;52.040;4.490;2023-07-16T17:36:47;25.10;80.60
41447;DHT22;27185;52.040;4.490;2023-07-16T17:39:33;25.00;80.60